Time;durP1;ratioP1;P1;durP2;ratioP2;P2;SDS_P1;SDS_P2;PMS_P1;PMS_P2;Temp;Humidity;BMP_temperature;BMP_pressure;BME280_temperature;BME280_humidity;BME280_pressure;Samples;Min_cycle;Max_cycle;Signal;HPM_P1;HPM_P2
2021/03/04 00:02:08;;;;;;;;;;;;;;;;;;4940955;29;21253;-68
2021/03/04 00:04:34;;;;;;;;;;;;;;;;;;4933964;29;20289;-68
2021/03/04 00:07:01;;;;;;;;;;;;;;;;;;4937996;29;19930;-70
2021/03/04 00:09:27;;;;;;;;;;;;;;;;;;4935018;29;19933;-67
2021/03/04 00:11:54;;;;;;;;;;;;;;;;;;4938149;29;19927;-67
2021/03/04 00:14:20;;;;;;;;;;;;;;;;;;4942519;28;19934;-66
2021/03/04 00:16:47;;;;;;;;;;;;;;;;;;4934939;29;19926;-66
2021/03/04 00:19:13;;;;;;;;;;;;;;;;;;4931466;29;19927;-67
2021/03/04 00:21:39;;;;;;;;;;;;;;;;;;4935514;29;20220;-67
2021/03/04 00:24:06;;;;;;;;;;;;;;;;;;4939105;29;19927;-67
2021/03/04 00:26:33;;;;;;;;;;;;;;;;;;4940848;29;20421;-68
2021/03/04 00:29:00;;;;;;;;;;;;;;;;;;4941970;28;19930;-68
2021/03/04 00:31:26;;;;;;;;;;;;;;;;;;4935771;28;19926;-66
2021/03/04 00:33:53;;;;;;;;;;;;;;;;;;4933158;29;19930;-67
2021/03/04 00:36:19;;;;;;;;;;;;;;;;;;4927300;29;19934;-67
2021/03/04 00:38:46;;;;;;;;;;;;;;;;;;4934153;29;19927;-67
2021/03/04 00:41:12;;;;;;;;;;;;;;;;;;4941097;29;19927;-67
2021/03/04 00:43:39;;;;;;;;;;;;;;;;;;4936644;29;19974;-67
2021/03/04 00:46:05;;;;;;;;;;;;;;;;;;4937455;29;20021;-67
2021/03/04 00:48:32;;;;;;;;;;;;;;;;;;4936410;29;19927;-66
2021/03/04 00:50:58;;;;;;;;;;;;;;;;;;4931854;29;19927;-67
2021/03/04 00:53:24;;;;;;;;;;;;;;;;;;4931612;29;19926;-66
2021/03/04 00:55:51;;;;;;;;;;;;;;;;;;4938767;29;19933;-66
2021/03/04 00:58:17;;;;;;;;;;;;;;;;;;4941102;29;19930;-67
2021/03/04 01:00:44;;;;;;;;;;;;;;;;;;4933351;29;20018;-66
2021/03/04 01:03:10;;;;;;;;;;;;;;;;;;4930604;29;19939;-66
2021/03/04 01:05:37;;;;;;;;;;;;;;;;;;4934884;29;19935;-66
2021/03/04 01:08:03;;;;;;;;;;;;;;;;;;4932247;29;19935;-66
2021/03/04 01:10:30;;;;;;;;;;;;;;;;;;4943545;29;20248;-66
2021/03/04 01:12:56;;;;;;;;;;;;;;;;;;4941593;29;19926;-67
2021/03/04 01:15:23;;;;;;;;;;;;;;;;;;4944801;29;19927;-67
2021/03/04 01:17:49;;;;;;;;;;;;;;;;;;4932960;29;20312;-67
2021/03/04 01:20:16;;;;;;;;;;;;;;;;;;4934884;29;19953;-66
2021/03/04 01:22:42;;;;;;;;;;;;;;;;;;4943725;29;19927;-68
2021/03/04 01:25:09;;;;;;;;;;;;;;;;;;4930526;29;20391;-67
2021/03/04 01:27:35;;;;;;;;;;;;;;;;;;4938293;28;19932;-68
2021/03/04 01:30:02;;;;;;;;;;;;;;;;;;4927812;29;20360;-67
2021/03/04 01:32:28;;;;;;;;;;;;;;;;;;4937083;29;20671;-67
2021/03/04 01:34:54;;;;;;;;;;;;;;;;;;4954292;23;19931;-66
2021/03/04 01:37:21;;;;;;;;;;;;;;;;;;4966051;28;19935;-65
2021/03/04 01:39:47;;;;;;;;;;;;;;;;;;4957735;28;19926;-66
2021/03/04 01:42:14;;;;;;;;;;;;;;;;;;4958348;28;19948;-66
2021/03/04 01:44:40;;;;;;;;;;;;;;;;;;4967847;28;19926;-66
2021/03/04 01:47:07;;;;;;;;;;;;;;;;;;4960129;28;19926;-67
2021/03/04 01:49:33;;;;;;;;;;;;;;;;;;4953517;28;20397;-66
2021/03/04 01:52:00;;;;;;;;;;;;;;;;;;4958660;28;20029;-67
2021/03/04 01:54:26;;;;;;;;;;;;;;;;;;4954440;28;19927;-66
2021/03/04 01:56:53;;;;;;;;;;;;;;;;;;4950979;28;20065;-66
2021/03/04 01:59:19;;;;;;;;;;;;;;;;;;4952927;28;19934;-67
2021/03/04 02:01:46;;;;;;;;;;;;;;;;;;4954282;28;20313;-66
2021/03/04 02:04:12;;;;;;;;;;;;;;;;;;4953896;28;19930;-65
2021/03/04 02:06:39;;;;;;;;;;;;;;;;;;4956996;28;19986;-66
2021/03/04 02:09:05;;;;;;;;;;;;;;;;;;4958936;28;19926;-66
2021/03/04 02:11:31;;;;;;;;;;;;;;;;;;4955690;28;19934;-66
2021/03/04 02:13:58;;;;;;;;;;;;;;;;;;4955794;28;19930;-66
2021/03/04 02:16:24;;;;;;;;;;;;;;;;;;4956679;28;19930;-65
2021/03/04 02:18:51;;;;;;;;;;;;;;;;;;4955350;28;20301;-66
2021/03/04 02:21:17;;;;;;;;;;;;;;;;;;4954303;28;19930;-66
2021/03/04 02:23:44;;;;;;;;;;;;;;;;;;4951880;28;20279;-66
2021/03/04 02:26:10;;;;;;;;;;;;;;;;;;4954593;28;19933;-66
2021/03/04 02:28:37;;;;;;;;;;;;;;;;;;4950573;28;19946;-66
2021/03/04 02:31:03;;;;;;;;;;;;;;;;;;4952389;28;19926;-67
2021/03/04 02:33:30;;;;;;;;;;;;;;;;;;4958404;28;19926;-66
2021/03/04 02:35:56;;;;;;;;;;;;;;;;;;4957489;28;19934;-66
2021/03/04 02:38:23;;;;;;;;;;;;;;;;;;4948927;28;19934;-66
2021/03/04 02:40:49;;;;;;;;;;;;;;;;;;4958545;28;20311;-66
2021/03/04 02:43:16;;;;;;;;;;;;;;;;;;4953073;28;19926;-67
2021/03/04 02:45:42;;;;;;;;;;;;;;;;;;4952636;28;19935;-67
2021/03/04 02:48:09;;;;;;;;;;;;;;;;;;4954609;28;19926;-66
2021/03/04 02:50:35;;;;;;;;;;;;;;;;;;4955132;28;19959;-67
2021/03/04 02:53:02;;;;;;;;;;;;;;;;;;4955370;28;19985;-67
2021/03/04 02:55:28;;;;;;;;;;;;;;;;;;4950777;28;19930;-66
2021/03/04 02:57:55;;;;;;;;;;;;;;;;;;4953508;28;20386;-66
2021/03/04 03:00:21;;;;;;;;;;;;;;;;;;4951628;28;19930;-67
2021/03/04 03:02:48;;;;;;;;;;;;;;;;;;4954008;28;19950;-67
2021/03/04 03:05:14;;;;;;;;;;;;;;;;;;4960363;28;20342;-67
2021/03/04 03:07:41;;;;;;;;;;;;;;;;;;4957006;28;19934;-66
2021/03/04 03:10:07;;;;;;;;;;;;;;;;;;4958516;28;19981;-67
2021/03/04 03:12:34;;;;;;;;;;;;;;;;;;4954123;28;20507;-67
2021/03/04 03:15:00;;;;;;;;;;;;;;;;;;4955524;28;19930;-66
2021/03/04 03:17:26;;;;;;;;;;;;;;;;;;4957571;28;19926;-67
2021/03/04 03:19:53;;;;;;;;;;;;;;;;;;4950988;28;19927;-67
2021/03/04 03:22:19;;;;;;;;;;;;;;;;;;4962227;28;20373;-66
2021/03/04 03:24:46;;;;;;;;;;;;;;;;;;4953148;28;19926;-66
2021/03/04 03:27:12;;;;;;;;;;;;;;;;;;4951607;28;19927;-66
2021/03/04 03:29:39;;;;;;;;;;;;;;;;;;4964509;28;20769;-66
2021/03/04 03:32:05;;;;;;;;;;;;;;;;;;4960014;28;19927;-66
2021/03/04 03:34:32;;;;;;;;;;;;;;;;;;4961439;28;19938;-67
2021/03/04 03:36:58;;;;;;;;;;;;;;;;;;4950326;28;19926;-67
2021/03/04 03:39:25;;;;;;;;;;;;;;;;;;4946380;28;19927;-67
2021/03/04 03:41:51;;;;;;;;;;;;;;;;;;4947447;28;19927;-67
2021/03/04 03:44:18;;;;;;;;;;;;;;;;;;4949937;28;20251;-67
2021/03/04 03:46:44;;;;;;;;;;;;;;;;;;4968265;28;19926;-67
2021/03/04 03:49:11;;;;;;;;;;;;;;;;;;4955249;28;20182;-67
2021/03/04 03:51:37;;;;;;;;;;;;;;;;;;4948403;28;19927;-67
2021/03/04 03:54:04;;;;;;;;;;;;;;;;;;4948048;28;19930;-67
2021/03/04 03:56:30;;;;;;;;;;;;;;;;;;4964082;28;19937;-67
2021/03/04 03:58:58;;;;;;;;;;;;;;;;;;4955427;29;20286;-67
2021/03/04 04:01:24;;;;;;;;;;;;;;;;;;4959930;28;20275;-65
2021/03/04 04:03:51;;;;;;;;;;;;;;;;;;4957066;28;19934;-66
2021/03/04 04:06:17;;;;;;;;;;;;;;;;;;4964011;28;19946;-66
2021/03/04 04:08:44;;;;;;;;;;;;;;;;;;4971298;28;20394;-67
2021/03/04 04:11:10;;;;;;;;;;;;;;;;;;4958824;28;19964;-66
2021/03/04 04:13:36;;;;;;;;;;;;;;;;;;4965336;28;19933;-67
2021/03/04 04:16:03;;;;;;;;;;;;;;;;;;4956877;28;19990;-66
2021/03/04 04:18:29;;;;;;;;;;;;;;;;;;4960898;28;20383;-67
2021/03/04 04:20:56;;;;;;;;;;;;;;;;;;4955943;28;20215;-66
2021/03/04 04:23:22;;;;;;;;;;;;;;;;;;4955856;28;19930;-66
2021/03/04 04:25:49;;;;;;;;;;;;;;;;;;4956183;28;20454;-67
2021/03/04 04:28:15;;;;;;;;;;;;;;;;;;4953458;28;19934;-68
2021/03/04 04:30:42;;;;;;;;;;;;;;;;;;4964909;28;19930;-67
2021/03/04 04:33:08;;;;;;;;;;;;;;;;;;4965352;28;19926;-67
2021/03/04 04:35:35;;;;;;;;;;;;;;;;;;4965103;28;19926;-67
2021/03/04 04:38:01;;;;;;;;;;;;;;;;;;4954734;28;19967;-68
2021/03/04 04:40:28;;;;;;;;;;;;;;;;;;4963366;28;19926;-67
2021/03/04 04:42:54;;;;;;;;;;;;;;;;;;4965124;28;20339;-67
2021/03/04 04:45:20;;;;;;;;;;;;;;;;;;4956335;28;19938;-67
2021/03/04 04:47:47;;;;;;;;;;;;;;;;;;4952366;29;19927;-68
2021/03/04 04:50:13;;;;;;;;;;;;;;;;;;4959676;28;20274;-68
2021/03/04 04:52:40;;;;;;;;;;;;;;;;;;4954067;28;19930;-67
2021/03/04 04:55:06;;;;;;;;;;;;;;;;;;4944038;28;20503;-67
2021/03/04 04:57:33;;;;;;;;;;;;;;;;;;4948983;28;20077;-67
2021/03/04 04:59:59;;;;;;;;;;;;;;;;;;4958740;28;19929;-68
2021/03/04 05:02:26;;;;;;;;;;;;;;;;;;4964994;28;19926;-67
2021/03/04 05:04:52;;;;;;;;;;;;;;;;;;4955465;28;19930;-67
2021/03/04 05:07:19;;;;;;;;;;;;;;;;;;4948219;28;19974;-69
2021/03/04 05:09:45;;;;;;;;;;;;;;;;;;4958228;28;19926;-67
2021/03/04 05:12:12;;;;;;;;;;;;;;;;;;4959999;28;20338;-67
2021/03/04 05:14:38;;;;;;;;;;;;;;;;;;4959134;28;19934;-67
2021/03/04 05:17:05;;;;;;;;;;;;;;;;;;4942229;29;19937;-67
2021/03/04 05:19:31;;;;;;;;;;;;;;;;;;4950173;28;19931;-70
2021/03/04 05:21:58;;;;;;;;;;;;;;;;;;4955686;28;19935;-67
2021/03/04 05:24:24;;;;;;;;;;;;;;;;;;4959340;28;20487;-67
2021/03/04 05:26:51;;;;;;;;;;;;;;;;;;4948305;29;19927;-67
2021/03/04 05:29:17;;;;;;;;;;;;;;;;;;4959151;28;20342;-67
2021/03/04 05:31:44;;;;;;;;;;;;;;;;;;4954950;28;19927;-67
2021/03/04 05:34:10;;;;;;;;;;;;;;;;;;4955859;28;19926;-67
2021/03/04 05:36:36;;;;;;;;;;;;;;;;;;4957300;28;19927;-67
2021/03/04 05:39:03;;;;;;;;;;;;;;;;;;4961487;28;19926;-67
2021/03/04 05:41:29;;;;;;;;;;;;;;;;;;4954236;28;19927;-67
2021/03/04 05:43:56;;;;;;;;;;;;;;;;;;4954980;28;19960;-67
2021/03/04 05:46:22;;;;;;;;;;;;;;;;;;4965006;28;19996;-68
2021/03/04 05:48:52;;;;;;;;;;;;;;;;;;4958454;28;19933;-67
2021/03/04 05:51:27;;;;;;;;;;;;;;;;;;4949975;28;20442;-68
2021/03/04 05:53:54;;;;;;;;;;;;;;;;;;4955551;28;20018;-68
2021/03/04 05:56:20;;;;;;;;;;;;;;;;;;4955391;28;20304;-67
2021/03/04 05:58:47;;;;;;;;;;;;;;;;;;4959510;28;19926;-67
2021/03/04 06:01:13;;;;;;;;;;;;;;;;;;4963125;28;19927;-67
2021/03/04 06:03:39;;;;;;;;;;;;;;;;;;4957210;28;19926;-67
2021/03/04 06:06:06;;;;;;;;;;;;;;;;;;4953806;28;20434;-68
2021/03/04 06:08:32;;;;;;;;;;;;;;;;;;4953436;28;20370;-67
2021/03/04 06:10:59;;;;;;;;;;;;;;;;;;4954138;28;19933;-67
2021/03/04 06:13:25;;;;;;;;;;;;;;;;;;4944075;28;19935;-67
2021/03/04 06:15:52;;;;;;;;;;;;;;;;;;4957561;28;20337;-67
2021/03/04 06:18:18;;;;;;;;;;;;;;;;;;4959572;28;19933;-68
2021/03/04 06:20:45;;;;;;;;;;;;;;;;;;4960545;28;19937;-72
2021/03/04 06:23:11;;;;;;;;;;;;;;;;;;4954099;28;19930;-68
2021/03/04 06:25:38;;;;;;;;;;;;;;;;;;4961168;28;19926;-68
2021/03/04 06:28:04;;;;;;;;;;;;;;;;;;4952936;28;20470;-68
2021/03/04 06:30:31;;;;;;;;;;;;;;;;;;4953281;28;19933;-68
2021/03/04 06:32:57;;;;;;;;;;;;;;;;;;4953576;28;19927;-68
2021/03/04 06:35:24;;;;;;;;;;;;;;;;;;4952570;28;19934;-68
2021/03/04 06:37:50;;;;;;;;;;;;;;;;;;4961222;28;20403;-68
2021/03/04 06:40:17;;;;;;;;;;;;;;;;;;4955722;28;19934;-67
2021/03/04 06:42:43;;;;;;;;;;;;;;;;;;4957450;28;19926;-65
2021/03/04 06:45:10;;;;;;;;;;;;;;;;;;4956973;28;20318;-65
2021/03/04 06:47:36;;;;;;;;;;;;;;;;;;4960024;28;19926;-64
2021/03/04 06:50:04;;;;;;;;;;;;;;;;;;4963252;28;19927;-65
2021/03/04 06:52:30;;;;;;;;;;;;;;;;;;4955078;28;19926;-65
2021/03/04 06:54:57;;;;;;;;;;;;;;;;;;4951794;28;19980;-65
2021/03/04 06:57:23;;;;;;;;;;;;;;;;;;4959819;28;19934;-65
2021/03/04 06:59:50;;;;;;;;;;;;;;;;;;4956314;28;20298;-65
2021/03/04 07:02:16;;;;;;;;;;;;;;;;;;4957968;28;19926;-65
2021/03/04 07:04:44;;;;;;;;;;;;;;;;;;4954307;28;19933;-67
2021/03/04 07:07:10;;;;;;;;;;;;;;;;;;4950195;28;19926;-66
2021/03/04 07:09:37;;;;;;;;;;;;;;;;;;4955531;28;19926;-66
2021/03/04 07:12:03;;;;;;;;;;;;;;;;;;4959613;28;20263;-66
2021/03/04 07:14:30;;;;;;;;;;;;;;;;;;4944624;28;19963;-65
2021/03/04 07:16:56;;;;;;;;;;;;;;;;;;4948093;28;19926;-66
2021/03/04 07:19:22;;;;;;;;;;;;;;;;;;4962919;28;20306;-66
2021/03/04 07:21:49;;;;;;;;;;;;;;;;;;4954587;28;19927;-66
2021/03/04 07:24:16;;;;;;;;;;;;;;;;;;4959740;28;19926;-66
2021/03/04 07:26:42;;;;;;;;;;;;;;;;;;4957593;28;19926;-66
2021/03/04 07:29:09;;;;;;;;;;;;;;;;;;4960997;28;20514;-66
2021/03/04 07:31:35;;;;;;;;;;;;;;;;;;4959110;28;19930;-66
2021/03/04 07:34:02;;;;;;;;;;;;;;;;;;4958556;28;19937;-67
2021/03/04 07:36:28;;;;;;;;;;;;;;;;;;4960251;28;20399;-67
2021/03/04 07:38:54;;;;;;;;;;;;;;;;;;4976482;23;19925;-67
2021/03/04 07:41:21;;;;;;;;;;;;;;;;;;4952707;28;19927;-67
2021/03/04 07:43:47;;;;;;;;;;;;;;;;;;4953957;28;19978;-69
2021/03/04 07:46:14;;;;;;;;;;;;;;;;;;4951727;28;19933;-68
2021/03/04 07:48:40;;;;;;;;;;;;;;;;;;4947650;28;19989;-68
2021/03/04 07:51:07;;;;;;;;;;;;;;;;;;4928944;29;20090;-67
2021/03/04 07:53:33;;;;;;;;;;;;;;;;;;4931895;29;19943;-67
2021/03/04 07:56:00;;;;;;;;;;;;;;;;;;4936209;29;19935;-67
2021/03/04 07:58:26;;;;;;;;;;;;;;;;;;4931766;29;20005;-67
2021/03/04 08:00:54;;;;;;;;;;;;;;;;;;4935334;28;19934;-68
2021/03/04 08:03:21;;;;;;;;;;;;;;;;;;4931709;29;19927;-67
2021/03/04 08:05:47;;;;;;;;;;;;;;;;;;4935150;29;19935;-67
2021/03/04 08:08:14;;;;;;;;;;;;;;;;;;4929107;29;20500;-68
2021/03/04 08:10:40;;;;;;;;;;;;;;;;;;4936132;28;19949;-68
2021/03/04 08:13:07;;;;;;;;;;;;;;;;;;4931853;29;19937;-68
2021/03/04 08:15:33;;;;;;;;;;;;;;;;;;4933804;29;19982;-68
2021/03/04 08:18:00;;;;;;;;;;;;;;;;;;4932746;29;19966;-68
2021/03/04 08:20:26;;;;;;;;;;;;;;;;;;4939043;28;20368;-67
2021/03/04 08:22:53;;;;;;;;;;;;;;;;;;4931247;29;20391;-67
2021/03/04 08:25:19;;;;;;;;;;;;;;;;;;4933018;29;19935;-67
2021/03/04 08:27:46;;;;;;;;;;;;;;;;;;4923506;29;19942;-67
2021/03/04 08:30:12;;;;;;;;;;;;;;;;;;4926526;29;19930;-67
2021/03/04 08:32:39;;;;;;;;;;;;;;;;;;4932624;29;20450;-66
2021/03/04 08:35:05;;;;;;;;;;;;;;;;;;4932248;29;19927;-67
2021/03/04 08:37:32;;;;;;;;;;;;;;;;;;4930077;29;19927;-68
2021/03/04 08:39:58;;;;;;;;;;;;;;;;;;4931700;29;19989;-68
2021/03/04 08:42:25;;;;;;;;;;;;;;;;;;4939383;29;19926;-67
2021/03/04 08:44:51;;;;;;;;;;;;;;;;;;4934580;28;19934;-67
2021/03/04 08:47:18;;;;;;;;;;;;;;;;;;4931613;29;19945;-69
2021/03/04 08:49:44;;;;;;;;;;;;;;;;;;4935210;29;20362;-68
2021/03/04 08:52:11;;;;;;;;;;;;;;;;;;4933050;29;20387;-66
2021/03/04 08:54:38;;;;;;;;;;;;;;;;;;4934008;29;19931;-68
2021/03/04 08:57:05;;;;;;;;;;;;;;;;;;4932437;29;20396;-67
2021/03/04 08:59:32;;;;;;;;;;;;;;;;;;4930983;28;19931;-68
2021/03/04 09:01:59;;;;;;;;;;;;;;;;;;4931840;29;20318;-67
2021/03/04 09:04:25;;;;;;;;;;;;;;;;;;4935320;29;19930;-67
2021/03/04 09:06:52;;;;;;;;;;;;;;;;;;4933661;29;19931;-67
2021/03/04 09:09:18;;;;;;;;;;;;;;;;;;4935500;28;20198;-67
2021/03/04 09:11:45;;;;;;;;;;;;;;;;;;4930546;29;20379;-68
2021/03/04 09:14:11;;;;;;;;;;;;;;;;;;4931599;29;20038;-67
2021/03/04 09:16:38;;;;;;;;;;;;;;;;;;4930427;29;19931;-67
2021/03/04 09:19:04;;;;;;;;;;;;;;;;;;4934329;28;19989;-67
2021/03/04 09:21:31;;;;;;;;;;;;;;;;;;4933463;29;20025;-68
2021/03/04 09:23:57;;;;;;;;;;;;;;;;;;4934678;29;19931;-69
2021/03/04 09:26:24;;;;;;;;;;;;;;;;;;4932297;29;19977;-69
2021/03/04 09:28:51;;;;;;;;;;;;;;;;;;4931584;28;19927;-68
2021/03/04 09:31:19;;;;;;;;;;;;;;;;;;4935601;28;19938;-67
2021/03/04 09:33:45;;;;;;;;;;;;;;;;;;4933132;29;20398;-67
2021/03/04 09:36:11;;;;;;;;;;;;;;;;;;4931221;29;19933;-67
2021/03/04 09:38:38;;;;;;;;;;;;;;;;;;4933560;29;20022;-68
2021/03/04 09:41:04;;;;;;;;;;;;;;;;;;4931950;29;19934;-68
2021/03/04 09:43:31;;;;;;;;;;;;;;;;;;4932932;29;19974;-67
2021/03/04 09:45:57;;;;;;;;;;;;;;;;;;4933396;28;20009;-68
2021/03/04 09:48:24;;;;;;;;;;;;;;;;;;4931192;29;19926;-68
2021/03/04 09:50:50;;;;;;;;;;;;;;;;;;4930543;29;19927;-68
2021/03/04 09:53:17;;;;;;;;;;;;;;;;;;4932465;29;20021;-67
2021/03/04 09:55:45;;;;;;;;;;;;;;;;;;4935686;29;20491;-68
2021/03/04 09:58:12;;;;;;;;;;;;;;;;;;4929537;29;19927;-67
2021/03/04 10:00:38;;;;;;;;;;;;;;;;;;4928377;29;19989;-69
2021/03/04 10:03:05;;;;;;;;;;;;;;;;;;4931937;29;20280;-68
2021/03/04 10:05:31;;;;;;;;;;;;;;;;;;4928427;29;19931;-68
2021/03/04 10:08:01;;;;;;;;;;;;;;;;;;4930862;29;20400;-68
2021/03/04 10:10:28;;;;;;;;;;;;;;;;;;4933974;28;19931;-68
2021/03/04 10:12:55;;;;;;;;;;;;;;;;;;4930847;29;19965;-69
2021/03/04 10:15:21;;;;;;;;;;;;;;;;;;4936169;28;19938;-68
2021/03/04 10:17:48;;;;;;;;;;;;;;;;;;4933133;29;19935;-68
2021/03/04 10:20:14;;;;;;;;;;;;;;;;;;4931637;28;19930;-69
2021/03/04 10:22:41;;;;;;;;;;;;;;;;;;4930914;29;19926;-69
2021/03/04 10:25:07;;;;;;;;;;;;;;;;;;4932585;29;19989;-68
2021/03/04 10:27:34;;;;;;;;;;;;;;;;;;4931230;29;20457;-69
2021/03/04 10:30:00;;;;;;;;;;;;;;;;;;4932720;29;20017;-68
2021/03/04 10:32:27;;;;;;;;;;;;;;;;;;4930109;29;20420;-69
2021/03/04 10:34:53;;;;;;;;;;;;;;;;;;4932098;29;19927;-68
2021/03/04 10:37:20;;;;;;;;;;;;;;;;;;4926111;29;19986;-69
2021/03/04 10:39:46;;;;;;;;;;;;;;;;;;4930044;29;20018;-68
2021/03/04 10:42:13;;;;;;;;;;;;;;;;;;4935721;29;19937;-67
2021/03/04 10:44:39;;;;;;;;;;;;;;;;;;4934637;29;19973;-69
2021/03/04 10:47:06;;;;;;;;;;;;;;;;;;4927633;29;20407;-70
2021/03/04 10:49:32;;;;;;;;;;;;;;;;;;4938289;28;19927;-67
2021/03/04 10:51:59;;;;;;;;;;;;;;;;;;4931528;28;20046;-68
2021/03/04 10:54:25;;;;;;;;;;;;;;;;;;4938084;29;19927;-67
2021/03/04 10:56:52;;;;;;;;;;;;;;;;;;4932125;29;20063;-68
2021/03/04 10:59:18;;;;;;;;;;;;;;;;;;4935798;29;19933;-69
2021/03/04 11:01:45;;;;;;;;;;;;;;;;;;4930640;29;20384;-68
2021/03/04 11:04:11;;;;;;;;;;;;;;;;;;4942619;29;19986;-68
2021/03/04 11:06:38;;;;;;;;;;;;;;;;;;4935541;29;19927;-68
2021/03/04 11:09:04;;;;;;;;;;;;;;;;;;4937024;28;19935;-70
2021/03/04 11:11:31;;;;;;;;;;;;;;;;;;4936453;29;19926;-69
2021/03/04 11:13:57;;;;;;;;;;;;;;;;;;4941317;29;19930;-69
2021/03/04 11:16:24;;;;;;;;;;;;;;;;;;4948868;29;19931;-69
2021/03/04 11:18:50;;;;;;;;;;;;;;;;;;4956033;28;19985;-68
2021/03/04 11:21:17;;;;;;;;;;;;;;;;;;4951842;28;20124;-67
2021/03/04 11:23:43;;;;;;;;;;;;;;;;;;4935126;29;19941;-70
2021/03/04 11:26:20;;;;;;;;;;;;;;;;;;4939609;29;20511;-68
2021/03/04 11:28:46;;;;;;;;;;;;;;;;;;4936702;29;19935;-67
2021/03/04 11:31:13;;;;;;;;;;;;;;;;;;4939500;29;19930;-69
2021/03/04 11:33:39;;;;;;;;;;;;;;;;;;4937536;29;19927;-68
2021/03/04 11:36:06;;;;;;;;;;;;;;;;;;4939935;28;20017;-69
2021/03/04 11:38:32;;;;;;;;;;;;;;;;;;4935098;29;19931;-69
2021/03/04 11:40:59;;;;;;;;;;;;;;;;;;4935443;29;19927;-67
2021/03/04 11:43:25;;;;;;;;;;;;;;;;;;4934990;29;19927;-69
2021/03/04 11:45:52;;;;;;;;;;;;;;;;;;4934188;28;20372;-68
2021/03/04 11:48:19;;;;;;;;;;;;;;;;;;4935072;29;20018;-67
2021/03/04 11:50:45;;;;;;;;;;;;;;;;;;4935421;28;19926;-69
2021/03/04 11:53:12;;;;;;;;;;;;;;;;;;4934175;29;19978;-68
2021/03/04 11:55:38;;;;;;;;;;;;;;;;;;4933928;29;20698;-69
2021/03/04 11:58:05;;;;;;;;;;;;;;;;;;4935178;29;19926;-68
2021/03/04 12:00:31;;;;;;;;;;;;;;;;;;4933581;29;19982;-68
2021/03/04 12:02:58;;;;;;;;;;;;;;;;;;4931599;29;19927;-72
2021/03/04 12:05:24;;;;;;;;;;;;;;;;;;4936705;28;19933;-69
2021/03/04 12:07:51;;;;;;;;;;;;;;;;;;4932121;29;19926;-71
2021/03/04 12:10:17;;;;;;;;;;;;;;;;;;4937315;28;20347;-70
2021/03/04 12:12:44;;;;;;;;;;;;;;;;;;4933254;29;20050;-70
2021/03/04 12:15:10;;;;;;;;;;;;;;;;;;4934586;29;19927;-70
2021/03/04 12:17:37;;;;;;;;;;;;;;;;;;4934817;29;20067;-70
2021/03/04 12:20:03;;;;;;;;;;;;;;;;;;4930123;29;19930;-69
2021/03/04 12:22:30;;;;;;;;;;;;;;;;;;4931214;29;20380;-70
2021/03/04 12:24:56;;;;;;;;;;;;;;;;;;4931632;29;19935;-69
2021/03/04 12:27:23;;;;;;;;;;;;;;;;;;4930471;29;19927;-67
2021/03/04 12:29:49;;;;;;;;;;;;;;;;;;4936977;28;19973;-70
2021/03/04 12:32:16;;;;;;;;;;;;;;;;;;4932492;29;19966;-70
2021/03/04 12:34:42;;;;;;;;;;;;;;;;;;4932626;29;20022;-69
2021/03/04 12:37:09;;;;;;;;;;;;;;;;;;4932451;29;19953;-69
2021/03/04 12:39:35;;;;;;;;;;;;;;;;;;4934056;29;19926;-68
2021/03/04 12:42:02;;;;;;;;;;;;;;;;;;4934098;29;20013;-70
2021/03/04 12:44:28;;;;;;;;;;;;;;;;;;4931274;29;19934;-70
2021/03/04 12:46:55;;;;;;;;;;;;;;;;;;4931181;29;19926;-69
2021/03/04 12:49:21;;;;;;;;;;;;;;;;;;4929877;28;20299;-68
2021/03/04 12:51:48;;;;;;;;;;;;;;;;;;4931291;29;19990;-71
2021/03/04 12:54:14;;;;;;;;;;;;;;;;;;4934788;29;19978;-70
2021/03/04 12:56:41;;;;;;;;;;;;;;;;;;4933054;29;20265;-70
2021/03/04 12:59:07;;;;;;;;;;;;;;;;;;4932769;29;19938;-67
2021/03/04 13:01:34;;;;;;;;;;;;;;;;;;4932765;29;20421;-71
2021/03/04 13:04:01;;;;;;;;;;;;;;;;;;4929120;29;19934;-68
2021/03/04 13:06:27;;;;;;;;;;;;;;;;;;4932485;29;19931;-70
2021/03/04 13:08:54;;;;;;;;;;;;;;;;;;4929147;28;20344;-68
2021/03/04 13:11:20;;;;;;;;;;;;;;;;;;4930638;29;20354;-68
2021/03/04 13:13:46;;;;;;;;;;;;;;;;;;4929032;29;19985;-68
2021/03/04 13:16:13;;;;;;;;;;;;;;;;;;4929458;29;19934;-69
2021/03/04 13:18:39;;;;;;;;;;;;;;;;;;4930871;29;19927;-70
2021/03/04 13:21:06;;;;;;;;;;;;;;;;;;4928753;29;19938;-68
2021/03/04 13:23:33;;;;;;;;;;;;;;;;;;4928983;29;20430;-70
2021/03/04 13:26:01;;;;;;;;;;;;;;;;;;4928167;29;20134;-70
2021/03/04 13:28:27;;;;;;;;;;;;;;;;;;4931583;29;19957;-67
2021/03/04 13:30:54;;;;;;;;;;;;;;;;;;4928293;28;20367;-69
2021/03/04 13:33:20;;;;;;;;;;;;;;;;;;4927525;29;19964;-69
2021/03/04 13:35:47;;;;;;;;;;;;;;;;;;4925783;29;19937;-68
2021/03/04 13:38:13;;;;;;;;;;;;;;;;;;4924316;29;19930;-70
2021/03/04 13:40:40;;;;;;;;;;;;;;;;;;4957838;23;19934;-67
2021/03/04 13:43:06;;;;;;;;;;;;;;;;;;4950884;28;19942;-66
2021/03/04 13:45:33;;;;;;;;;;;;;;;;;;4951719;28;19947;-66
2021/03/04 13:47:59;;;;;;;;;;;;;;;;;;4946313;28;20802;-67
2021/03/04 13:50:26;;;;;;;;;;;;;;;;;;4950134;28;19934;-66
2021/03/04 13:52:52;;;;;;;;;;;;;;;;;;4949043;28;19970;-67
2021/03/04 13:55:19;;;;;;;;;;;;;;;;;;4946659;29;19934;-67
2021/03/04 13:57:45;;;;;;;;;;;;;;;;;;4947082;28;19926;-66
2021/03/04 14:00:12;;;;;;;;;;;;;;;;;;4951084;28;20205;-66
2021/03/04 14:02:38;;;;;;;;;;;;;;;;;;4948461;28;20026;-66
2021/03/04 14:05:05;;;;;;;;;;;;;;;;;;4947848;28;20029;-66
2021/03/04 14:07:33;;;;;;;;;;;;;;;;;;4949516;28;20301;-66
2021/03/04 14:10:00;;;;;;;;;;;;;;;;;;4949698;28;19926;-67
2021/03/04 14:12:26;;;;;;;;;;;;;;;;;;4944653;28;19948;-70
2021/03/04 14:14:53;;;;;;;;;;;;;;;;;;4948435;28;20382;-66
2021/03/04 14:17:20;;;;;;;;;;;;;;;;;;4948907;28;19933;-67
2021/03/04 14:19:46;;;;;;;;;;;;;;;;;;4947045;28;19927;-66
2021/03/04 14:22:13;;;;;;;;;;;;;;;;;;4949235;28;19927;-69
2021/03/04 14:24:39;;;;;;;;;;;;;;;;;;4945177;28;19933;-66
2021/03/04 14:27:06;;;;;;;;;;;;;;;;;;4948186;28;19931;-68
2021/03/04 14:29:32;;;;;;;;;;;;;;;;;;4948496;28;20279;-68
2021/03/04 14:31:59;;;;;;;;;;;;;;;;;;4951509;28;20169;-67
2021/03/04 14:34:25;;;;;;;;;;;;;;;;;;4946758;28;19936;-67
2021/03/04 14:36:52;;;;;;;;;;;;;;;;;;4945325;28;19958;-68
2021/03/04 14:39:18;;;;;;;;;;;;;;;;;;4947335;28;19927;-67
2021/03/04 14:41:45;;;;;;;;;;;;;;;;;;4940219;29;19926;-68
2021/03/04 14:44:11;;;;;;;;;;;;;;;;;;4950245;28;20298;-66
2021/03/04 14:46:37;;;;;;;;;;;;;;;;;;4945423;28;19933;-68
2021/03/04 14:49:04;;;;;;;;;;;;;;;;;;4951397;28;19977;-67
2021/03/04 14:51:30;;;;;;;;;;;;;;;;;;4948501;28;19969;-66
2021/03/04 14:53:57;;;;;;;;;;;;;;;;;;4945473;28;19933;-66
2021/03/04 14:56:23;;;;;;;;;;;;;;;;;;4948543;28;19970;-67
2021/03/04 14:58:50;;;;;;;;;;;;;;;;;;4946318;28;19933;-66
2021/03/04 15:01:17;;;;;;;;;;;;;;;;;;4945324;28;19982;-67
2021/03/04 15:03:43;;;;;;;;;;;;;;;;;;4948817;28;20018;-67
2021/03/04 15:06:09;;;;;;;;;;;;;;;;;;4946659;28;19974;-66
2021/03/04 15:08:36;;;;;;;;;;;;;;;;;;4950849;28;19931;-66
2021/03/04 15:11:02;;;;;;;;;;;;;;;;;;4949205;28;20391;-66
2021/03/04 15:13:29;;;;;;;;;;;;;;;;;;4946554;28;19926;-67
2021/03/04 15:15:55;;;;;;;;;;;;;;;;;;4946611;28;20019;-67
2021/03/04 15:18:22;;;;;;;;;;;;;;;;;;4948657;28;19981;-66
2021/03/04 15:20:48;;;;;;;;;;;;;;;;;;4946046;28;20033;-68
2021/03/04 15:23:15;;;;;;;;;;;;;;;;;;4944001;28;20375;-68
2021/03/04 15:25:41;;;;;;;;;;;;;;;;;;4944348;28;19975;-68
2021/03/04 15:28:08;;;;;;;;;;;;;;;;;;4943484;28;19986;-66
2021/03/04 15:30:34;;;;;;;;;;;;;;;;;;4944641;28;19946;-68
2021/03/04 15:33:01;;;;;;;;;;;;;;;;;;4949198;28;20425;-68
2021/03/04 15:35:27;;;;;;;;;;;;;;;;;;4947634;28;19926;-67
2021/03/04 15:37:54;;;;;;;;;;;;;;;;;;4947467;28;19927;-67
2021/03/04 15:40:20;;;;;;;;;;;;;;;;;;4952773;28;19930;-67
2021/03/04 15:42:47;;;;;;;;;;;;;;;;;;4948421;28;19926;-67
2021/03/04 15:45:13;;;;;;;;;;;;;;;;;;4955598;28;19926;-68
2021/03/04 15:47:40;;;;;;;;;;;;;;;;;;4951081;28;19973;-68
2021/03/04 15:50:06;;;;;;;;;;;;;;;;;;4954434;28;20314;-67
2021/03/04 15:52:33;;;;;;;;;;;;;;;;;;4951268;28;19933;-67
2021/03/04 15:54:59;;;;;;;;;;;;;;;;;;4950116;28;20017;-69
2021/03/04 15:57:26;;;;;;;;;;;;;;;;;;4953915;28;19934;-69
2021/03/04 15:59:52;;;;;;;;;;;;;;;;;;4952527;28;19931;-67
2021/03/04 16:02:19;;;;;;;;;;;;;;;;;;4957368;28;19933;-67
2021/03/04 16:04:45;;;;;;;;;;;;;;;;;;4953925;28;20001;-66
2021/03/04 16:07:12;;;;;;;;;;;;;;;;;;4951566;28;20372;-66
2021/03/04 16:09:38;;;;;;;;;;;;;;;;;;4950611;28;20021;-68
2021/03/04 16:12:05;;;;;;;;;;;;;;;;;;4949490;28;20279;-66
2021/03/04 16:14:31;;;;;;;;;;;;;;;;;;4954756;28;20332;-67
2021/03/04 16:16:58;;;;;;;;;;;;;;;;;;4956182;28;19937;-67
2021/03/04 16:19:24;;;;;;;;;;;;;;;;;;4948556;28;20014;-67
2021/03/04 16:21:51;;;;;;;;;;;;;;;;;;4947330;28;20273;-69
2021/03/04 16:24:18;;;;;;;;;;;;;;;;;;4953121;28;20415;-66
2021/03/04 16:26:54;;;;;;;;;;;;;;;;;;4950119;28;19926;-66
2021/03/04 16:29:21;;;;;;;;;;;;;;;;;;4948131;28;20489;-66
2021/03/04 16:31:48;;;;;;;;;;;;;;;;;;4950222;28;19927;-66
2021/03/04 16:34:14;;;;;;;;;;;;;;;;;;4951170;28;19935;-69
2021/03/04 16:36:41;;;;;;;;;;;;;;;;;;4947437;28;19930;-69
2021/03/04 16:39:07;;;;;;;;;;;;;;;;;;4949944;28;19926;-69
2021/03/04 16:41:34;;;;;;;;;;;;;;;;;;4952115;28;20410;-68